Time;durP1;ratioP1;P1;durP2;ratioP2;P2;SDS_P1;SDS_P2;PMS_P1;PMS_P2;Temp;Humidity;BMP_temperature;BMP_pressure;BME280_temperature;BME280_humidity;BME280_pressure;Samples;Min_cycle;Max_cycle;Signal;HPM_P1;HPM_P2
2022/04/27 00:02:15;;;;;;;3.28;0.90;;;9.30;99.90;;;;;;5060586;28;20052;-82
2022/04/27 00:04:41;;;;;;;0.98;0.88;;;9.30;99.90;;;;;;5062011;28;20032;-82
2022/04/27 00:07:07;;;;;;;3.15;0.80;;;9.30;99.90;;;;;;5072335;28;20039;-82
2022/04/27 00:09:34;;;;;;;0.95;0.70;;;9.30;99.90;;;;;;5094267;28;20043;-82
2022/04/27 00:12:03;;;;;;;1.17;0.73;;;9.30;99.90;;;;;;5055170;28;20017;-83
2022/04/27 00:14:31;;;;;;;0.60;0.60;;;9.20;99.90;;;;;;5087332;28;20118;-83
2022/04/27 00:16:58;;;;;;;1.20;0.90;;;9.20;99.90;;;;;;5080962;28;20051;-83
2022/04/27 00:19:25;;;;;;;1.00;0.90;;;9.20;99.90;;;;;;5080628;28;20024;-83
2022/04/27 00:21:51;;;;;;;1.67;0.90;;;9.20;99.90;;;;;;5082750;28;20017;-83
2022/04/27 00:24:18;;;;;;;1.35;0.90;;;9.20;99.90;;;;;;5063928;28;20021;-82
2022/04/27 00:26:44;;;;;;;1.00;0.70;;;9.20;99.90;;;;;;5081296;28;20017;-85
2022/04/27 00:29:10;;;;;;;1.05;0.90;;;9.20;99.90;;;;;;5075446;28;20040;-84
2022/04/27 00:31:36;;;;;;;1.42;0.73;;;9.20;99.90;;;;;;5119399;22;20025;-85
2022/04/27 00:34:02;;;;;;;0.80;0.80;;;9.20;99.90;;;;;;5037427;28;20033;-81
2022/04/27 00:36:30;;;;;;;1.10;0.93;;;9.20;99.90;;;;;;5059806;28;20031;-83
2022/04/27 00:38:55;;;;;;;0.80;0.80;;;9.20;99.90;;;;;;5043644;28;20024;-84
2022/04/27 00:41:21;;;;;;;0.82;0.60;;;9.20;99.90;;;;;;5051572;28;20028;-85
2022/04/27 00:43:48;;;;;;;0.68;0.68;;;9.20;99.90;;;;;;5066655;28;20025;-85
2022/04/27 00:46:13;;;;;;;2.60;0.85;;;9.20;99.90;;;;;;5063698;28;20029;-85
2022/04/27 00:48:40;;;;;;;2.88;0.70;;;9.20;99.90;;;;;;5064368;28;20025;-83
2022/04/27 00:51:08;;;;;;;0.70;0.70;;;9.20;99.90;;;;;;5064491;28;20028;-84
2022/04/27 00:53:35;;;;;;;0.65;0.65;;;9.20;99.90;;;;;;5075313;28;20032;-80
2022/04/27 00:56:01;;;;;;;0.93;0.70;;;9.10;99.90;;;;;;5075867;28;20009;-83
2022/04/27 00:58:27;;;;;;;0.95;0.82;;;9.10;99.90;;;;;;5056419;28;20127;-85
2022/04/27 01:00:56;;;;;;;0.65;0.60;;;9.10;99.90;;;;;;5067417;28;20025;-86
2022/04/27 01:03:25;;;;;;;1.13;0.88;;;9.10;99.90;;;;;;5051118;28;20028;-84
2022/04/27 01:05:52;;;;;;;1.30;0.90;;;9.10;99.90;;;;;;5070321;28;20024;-82
2022/04/27 01:08:21;;;;;;;0.70;0.63;;;9.10;99.90;;;;;;5056550;28;20063;-82
2022/04/27 01:10:48;;;;;;;1.35;0.70;;;9.10;99.90;;;;;;5058177;28;20013;-82
2022/04/27 01:13:15;;;;;;;0.93;0.80;;;9.10;99.90;;;;;;5070471;28;20025;-83
2022/04/27 01:15:42;;;;;;;0.98;0.80;;;9.10;99.90;;;;;;5055104;28;20400;-85
2022/04/27 01:18:09;;;;;;;0.65;0.60;;;9.10;99.90;;;;;;5051098;28;20033;-85
2022/04/27 01:20:46;;;;;;;0.60;0.60;;;9.10;99.90;;;;;;5045486;28;20017;-83
2022/04/27 01:23:15;;;;;;;0.70;0.52;;;9.10;99.90;;;;;;5047689;28;20139;-81
2022/04/27 01:25:54;;;;;;;1.23;0.70;;;9.10;99.90;;;;;;5057965;28;20032;-86
2022/04/27 01:28:30;;;;;;;0.63;0.63;;;9.10;99.90;;;;;;5053695;28;20040;-85
2022/04/27 01:31:00;;;;;;;2.85;0.80;;;9.10;99.90;;;;;;5063864;28;20031;-85
2022/04/27 01:33:27;;;;;;;0.60;0.60;;;9.10;99.90;;;;;;5040688;28;20408;-85
2022/04/27 01:35:54;;;;;;;1.33;0.70;;;9.10;99.90;;;;;;5040248;28;20216;-86
2022/04/27 01:38:20;;;;;;;1.10;0.50;;;9.20;99.90;;;;;;5042137;28;20404;-86
2022/04/27 01:40:47;;;;;;;0.50;0.50;;;9.20;99.90;;;;;;5071423;28;20021;-85
2022/04/27 01:43:16;;;;;;;0.57;0.57;;;9.10;99.90;;;;;;5041438;28;20025;-85
2022/04/27 01:45:43;;;;;;;0.50;0.50;;;9.20;99.90;;;;;;5058546;28;20036;-83
2022/04/27 01:48:11;;;;;;;0.98;0.80;;;9.10;99.90;;;;;;5040181;28;20036;-86
2022/04/27 01:50:36;;;;;;;2.40;0.55;;;9.10;99.90;;;;;;5058755;28;20469;-83
2022/04/27 01:55:48;;;;;;;1.50;0.60;;;9.10;99.90;;;;;;5040379;28;20420;-84
2022/04/27 01:58:15;;;;;;;0.85;0.60;;;9.10;99.90;;;;;;5060437;28;20029;-86
2022/04/27 02:00:42;;;;;;;0.60;0.60;;;9.10;99.90;;;;;;5045887;28;20112;-85
2022/04/27 02:03:07;;;;;;;0.65;0.65;;;9.10;99.90;;;;;;5046204;28;20075;-82
2022/04/27 02:05:34;;;;;;;0.50;0.50;;;9.10;99.90;;;;;;5047502;28;20051;-85
2022/04/27 02:08:02;;;;;;;0.60;0.60;;;9.10;99.90;;;;;;5047235;28;20028;-84
2022/04/27 02:10:28;;;;;;;0.68;0.60;;;9.10;99.90;;;;;;5031864;28;20029;-85
2022/04/27 02:12:54;;;;;;;0.82;0.68;;;9.10;99.90;;;;;;5048947;28;20029;-84
2022/04/27 02:15:22;;;;;;;1.48;0.60;;;9.10;99.90;;;;;;5045394;28;20078;-82
2022/04/27 02:17:59;;;;;;;0.60;0.60;;;9.10;99.90;;;;;;5048478;28;20051;-84
2022/04/27 02:20:25;;;;;;;1.60;0.95;;;9.10;99.90;;;;;;5051603;28;20029;-83
2022/04/27 02:22:51;;;;;;;3.30;1.10;;;9.10;99.90;;;;;;5066484;28;20036;-83
2022/04/27 02:25:18;;;;;;;0.98;0.80;;;9.10;99.90;;;;;;5056250;28;20037;-87
2022/04/27 02:27:44;;;;;;;2.38;0.70;;;9.10;99.90;;;;;;5070359;28;20083;-85
2022/04/27 02:30:11;;;;;;;0.65;0.60;;;9.10;99.90;;;;;;5063366;28;20033;-82
2022/04/27 02:32:38;;;;;;;1.08;0.75;;;9.10;99.90;;;;;;5060705;28;20028;-84
2022/04/27 02:35:06;;;;;;;1.20;1.00;;;9.10;99.90;;;;;;5068807;28;20037;-83
2022/04/27 02:37:32;;;;;;;1.35;0.77;;;9.10;99.90;;;;;;5051988;28;20021;-83
2022/04/27 02:39:59;;;;;;;2.90;1.13;;;9.10;99.90;;;;;;5047512;28;20029;-83
2022/04/27 02:42:26;;;;;;;1.08;0.98;;;9.10;99.90;;;;;;5044647;28;20024;-81
2022/04/27 02:44:52;;;;;;;1.85;1.13;;;9.10;99.90;;;;;;5061374;28;20028;-83
2022/04/27 02:47:20;;;;;;;1.13;0.85;;;9.10;99.90;;;;;;5045453;28;20343;-86
2022/04/27 02:52:48;;;;;;;1.75;1.35;;;9.10;99.90;;;;;;5062141;28;20033;-82
2022/04/27 02:55:22;;;;;;;2.50;1.00;;;9.10;99.90;;;;;;5060973;28;20025;-84
2022/04/27 02:57:48;;;;;;;3.10;1.85;;;9.10;99.90;;;;;;5061519;28;20024;-82
2022/04/27 03:00:15;;;;;;;1.73;1.30;;;9.10;99.90;;;;;;5044507;28;20037;-84
2022/04/27 03:02:41;;;;;;;1.40;1.30;;;9.10;99.90;;;;;;5033781;28;20051;-85
2022/04/27 03:05:08;;;;;;;1.75;1.50;;;9.10;99.90;;;;;;5042581;28;20075;-83
2022/04/27 03:07:34;;;;;;;2.15;1.35;;;9.00;99.90;;;;;;5043923;28;20107;-84
2022/04/27 03:09:59;;;;;;;1.52;1.20;;;9.10;99.90;;;;;;5042374;28;20036;-83
2022/04/27 03:12:25;;;;;;;1.95;1.50;;;9.10;99.90;;;;;;5043887;28;20025;-84
2022/04/27 03:14:51;;;;;;;2.85;1.80;;;9.10;99.90;;;;;;5025474;28;20036;-84
2022/04/27 03:17:17;;;;;;;4.85;1.90;;;9.20;99.90;;;;;;5061049;28;20025;-84
2022/04/27 03:19:43;;;;;;;3.15;1.92;;;9.10;99.90;;;;;;5042809;28;20021;-86
2022/04/27 03:22:11;;;;;;;2.83;1.95;;;9.20;99.90;;;;;;5042713;28;20087;-84
2022/04/27 03:24:37;;;;;;;2.90;2.03;;;9.10;99.90;;;;;;5042063;28;20481;-85
2022/04/27 03:27:14;;;;;;;3.35;2.40;;;9.20;99.90;;;;;;5043571;28;20032;-85
2022/04/27 03:29:41;;;;;;;2.75;1.88;;;9.20;99.90;;;;;;5050621;28;20033;-85
2022/04/27 03:32:09;;;;;;;2.97;2.25;;;9.20;99.90;;;;;;5045767;28;20108;-85
2022/04/27 03:34:39;;;;;;;4.00;2.55;;;9.20;99.90;;;;;;5057009;28;20025;-82
2022/04/27 03:37:05;;;;;;;5.13;2.70;;;9.20;99.90;;;;;;5056373;28;20079;-83
2022/04/27 03:39:31;;;;;;;3.90;3.00;;;9.20;99.90;;;;;;5060858;28;20118;-85
2022/04/27 03:41:57;;;;;;;6.72;3.28;;;9.20;99.90;;;;;;5055190;28;20074;-80
2022/04/27 03:44:24;;;;;;;4.50;3.03;;;9.20;99.90;;;;;;5059915;28;20020;-82
2022/04/27 03:46:50;;;;;;;4.40;3.03;;;9.10;99.90;;;;;;5042285;28;20013;-83
2022/04/27 03:49:16;;;;;;;6.25;3.10;;;9.10;99.90;;;;;;5040036;28;20033;-82
2022/04/27 03:51:42;;;;;;;5.32;2.95;;;9.10;99.90;;;;;;5049966;28;20040;-85
2022/04/27 03:54:08;;;;;;;4.60;3.33;;;9.00;99.90;;;;;;5045937;28;20037;-85
2022/04/27 03:56:33;;;;;;;5.22;3.35;;;9.10;99.90;;;;;;5073458;28;20368;-84
2022/04/27 03:58:59;;;;;;;4.55;3.33;;;9.10;99.90;;;;;;5049096;28;20097;-81
2022/04/27 04:01:25;;;;;;;7.63;3.33;;;9.10;99.90;;;;;;5067270;28;20025;-83
2022/04/27 04:03:52;;;;;;;12.23;5.93;;;9.20;99.90;;;;;;5034985;28;20289;-83
2022/04/27 04:06:19;;;;;;;5.05;3.63;;;9.20;99.90;;;;;;5042126;28;20053;-82
2022/04/27 04:08:46;;;;;;;6.28;3.58;;;9.20;99.90;;;;;;5058069;28;20032;-80
2022/04/27 04:11:13;;;;;;;4.88;3.20;;;9.20;99.90;;;;;;5059057;28;20110;-82
2022/04/27 04:13:57;;;;;;;6.28;3.97;;;9.20;99.90;;;;;;5044778;28;20033;-82
2022/04/27 04:16:32;;;;;;;7.70;4.18;;;9.20;99.90;;;;;;5059342;28;20025;-82
2022/04/27 04:19:12;;;;;;;7.35;4.38;;;9.20;99.90;;;;;;5059332;28;20061;-83
2022/04/27 04:21:59;;;;;;;6.00;3.88;;;9.30;99.90;;;;;;5042742;28;20029;-85
2022/04/27 04:30:10;;;;;;;9.65;4.47;;;9.30;99.90;;;;;;5074150;28;20038;-82
2022/04/27 04:32:38;;;;;;;8.02;4.30;;;9.30;99.90;;;;;;5053292;28;20037;-84
2022/04/27 04:35:33;;;;;;;7.63;4.63;;;9.40;99.90;;;;;;5049568;28;20053;-85
2022/04/27 04:38:00;;;;;;;10.27;4.57;;;9.50;99.90;;;;;;5069647;28;20021;-83
2022/04/27 04:40:27;;;;;;;8.50;4.57;;;9.50;99.90;;;;;;5070990;28;20028;-83
2022/04/27 04:42:55;;;;;;;6.85;4.28;;;9.50;99.90;;;;;;5053784;28;20531;-83
2022/04/27 04:45:21;;;;;;;7.40;4.63;;;9.50;99.90;;;;;;5053569;28;20009;-82
2022/04/27 04:48:08;;;;;;;8.05;3.88;;;9.50;99.90;;;;;;5073376;28;20097;-82
2022/04/27 04:50:57;;;;;;;6.88;4.22;;;9.50;99.90;;;;;;5069820;28;20029;-85
2022/04/27 04:53:42;;;;;;;8.27;5.45;;;9.50;99.90;;;;;;5061456;28;20412;-83
2022/04/27 04:56:26;;;;;;;15.27;7.55;;;9.50;99.90;;;;;;5061919;28;20059;-82
2022/04/27 04:59:19;;;;;;;6.97;4.30;;;9.50;99.90;;;;;;5052763;28;20049;-82
2022/04/27 05:02:01;;;;;;;7.00;4.00;;;9.60;99.90;;;;;;5059141;28;20063;-81
2022/04/27 05:04:27;;;;;;;9.32;3.72;;;9.70;99.90;;;;;;5075894;28;20040;-81
2022/04/27 05:07:07;;;;;;;6.43;3.97;;;9.70;99.90;;;;;;5057348;28;20046;-82
2022/04/27 05:09:57;;;;;;;10.15;4.22;;;9.70;99.90;;;;;;5056432;28;20132;-82
2022/04/27 05:12:42;;;;;;;8.80;4.03;;;9.80;99.90;;;;;;5066783;28;20051;-82
2022/04/27 05:15:30;;;;;;;6.63;3.53;;;9.80;99.90;;;;;;5062513;28;20049;-81
2022/04/27 05:18:35;;;;;;;11.68;4.43;;;9.80;99.90;;;;;;5077719;28;20100;-82
2022/04/27 05:21:29;;;;;;;7.38;3.80;;;9.90;99.90;;;;;;5068328;28;20032;-80
2022/04/27 05:24:05;;;;;;;5.47;3.42;;;10.00;99.90;;;;;;5058177;28;20031;-81
2022/04/27 05:26:51;;;;;;;5.68;3.60;;;10.00;99.90;;;;;;5036034;28;20105;-82
2022/04/27 05:32:43;;;;;;;6.65;3.67;;;10.00;99.90;;;;;;5075085;28;20048;-86
2022/04/27 05:35:47;;;;;;;7.88;3.53;;;10.10;99.90;;;;;;5064061;28;20037;-84
2022/04/27 05:38:25;;;;;;;10.52;4.07;;;10.10;99.90;;;;;;5051567;28;20029;-83
2022/04/27 05:41:12;;;;;;;5.15;3.78;;;10.10;99.90;;;;;;5053012;28;20021;-85
2022/04/27 05:43:55;;;;;;;4.80;2.72;;;10.10;99.90;;;;;;5058852;28;20024;-81
2022/04/27 05:46:35;;;;;;;8.98;3.08;;;10.10;99.90;;;;;;5062961;28;20066;-80
2022/04/27 05:49:14;;;;;;;5.85;3.28;;;10.10;99.90;;;;;;5062923;28;20033;-80
2022/04/27 05:51:52;;;;;;;7.78;3.13;;;10.00;99.90;;;;;;5080428;28;20195;-82
2022/04/27 05:54:36;;;;;;;6.63;3.20;;;10.00;99.90;;;;;;5068638;28;20075;-84
2022/04/27 05:57:32;;;;;;;12.40;4.32;;;10.00;99.90;;;;;;5064695;28;20048;-81
2022/04/27 06:00:24;;;;;;;6.38;3.40;;;10.00;99.90;;;;;;5059954;28;20040;-84
2022/04/27 06:03:09;;;;;;;7.25;3.45;;;9.90;99.90;;;;;;5057068;28;20488;-84
2022/04/27 06:05:36;;;;;;;6.15;2.88;;;9.90;99.90;;;;;;5023182;28;20079;-85
2022/04/27 06:08:02;;;;;;;5.90;3.40;;;10.00;99.90;;;;;;5042384;28;20093;-84
2022/04/27 06:10:28;;;;;;;5.07;3.25;;;9.90;99.90;;;;;;5051052;28;20032;-86
2022/04/27 06:12:58;;;;;;;6.32;3.50;;;9.90;99.90;;;;;;5060788;28;20492;-86
2022/04/27 06:15:32;;;;;;;7.07;3.45;;;9.80;99.90;;;;;;5066489;28;20052;-82
2022/04/27 06:18:01;;;;;;;4.65;2.90;;;9.90;99.90;;;;;;5062726;28;20070;-85
2022/04/27 06:20:28;;;;;;;5.47;3.25;;;9.90;99.90;;;;;;5053709;28;20040;-87
2022/04/27 06:22:56;;;;;;;7.28;3.25;;;9.90;99.90;;;;;;5055650;28;20017;-85
2022/04/27 06:25:25;;;;;;;6.75;3.00;;;9.90;99.90;;;;;;5054573;28;20021;-82
2022/04/27 06:28:17;;;;;;;4.83;3.00;;;9.90;99.90;;;;;;5068660;28;20037;-86
2022/04/27 06:30:43;;;;;;;5.25;3.47;;;10.00;99.90;;;;;;5053049;28;20044;-87
2022/04/27 06:33:10;;;;;;;4.90;2.95;;;10.00;99.90;;;;;;5044989;28;20052;-85
2022/04/27 06:35:37;;;;;;;4.85;3.33;;;9.90;99.90;;;;;;5071899;28;20498;-85
2022/04/27 06:38:10;;;;;;;6.30;3.25;;;9.90;99.90;;;;;;5055496;28;20025;-84
2022/04/27 06:40:35;;;;;;;5.15;3.25;;;9.90;99.90;;;;;;5048416;28;20059;-84
2022/04/27 06:43:02;;;;;;;5.10;3.50;;;9.90;99.90;;;;;;5044186;28;20009;-83
2022/04/27 06:45:46;;;;;;;5.05;3.03;;;10.00;99.90;;;;;;5066740;28;20041;-85
2022/04/27 06:48:32;;;;;;;6.93;3.67;;;10.00;99.90;;;;;;5069092;28;20053;-84
2022/04/27 06:51:18;;;;;;;9.48;3.63;;;10.00;99.90;;;;;;5050678;28;20342;-86
2022/04/27 06:54:06;;;;;;;15.77;7.90;;;10.00;99.90;;;;;;5110877;22;20076;-83
2022/04/27 06:56:55;;;;;;;8.63;3.80;;;10.10;99.90;;;;;;5075302;28;20043;-83
2022/04/27 06:59:31;;;;;;;6.72;3.05;;;10.10;99.90;;;;;;5101685;28;20024;-81
2022/04/27 07:02:02;;;;;;;6.30;4.35;;;10.20;99.90;;;;;;5069639;28;20074;-83
2022/04/27 07:04:29;;;;;;;16.23;6.70;;;10.20;99.90;;;;;;5101175;28;20088;-82
2022/04/27 07:06:55;;;;;;;7.32;3.80;;;10.30;99.90;;;;;;5080707;28;20021;-83
2022/04/27 07:09:22;;;;;;;5.50;3.47;;;10.40;99.90;;;;;;5093354;28;20029;-86
2022/04/27 07:11:47;;;;;;;6.80;3.63;;;10.50;99.90;;;;;;5091973;28;20446;-84
2022/04/27 07:14:16;;;;;;;5.20;3.53;;;10.60;99.90;;;;;;5074914;28;20059;-84
2022/04/27 07:16:45;;;;;;;7.30;3.58;;;10.70;99.90;;;;;;5091899;28;20472;-83
2022/04/27 07:19:11;;;;;;;5.93;3.42;;;10.80;99.90;;;;;;5085400;28;20549;-86
2022/04/27 07:21:41;;;;;;;4.35;3.38;;;10.80;99.90;;;;;;5064738;28;20024;-82
2022/04/27 07:24:07;;;;;;;5.55;3.20;;;10.90;99.90;;;;;;5046689;28;20068;-85
2022/04/27 07:26:33;;;;;;;6.97;3.13;;;11.00;99.90;;;;;;5051242;28;20036;-84
2022/04/27 07:28:59;;;;;;;8.57;3.20;;;11.10;99.90;;;;;;5082876;28;20534;-85
2022/04/27 07:31:26;;;;;;;5.25;3.22;;;11.10;99.90;;;;;;5082817;28;20031;-83
2022/04/27 07:33:52;;;;;;;5.47;3.47;;;11.20;99.90;;;;;;5056876;28;20048;-82
2022/04/27 07:36:18;;;;;;;5.35;3.42;;;11.40;99.90;;;;;;5089961;28;20038;-82
2022/04/27 07:38:44;;;;;;;9.32;3.78;;;11.40;99.90;;;;;;5066237;28;20107;-83
2022/04/27 07:41:11;;;;;;;7.22;3.80;;;11.40;99.90;;;;;;5081423;28;20025;-84
2022/04/27 07:43:37;;;;;;;5.47;3.42;;;11.50;99.90;;;;;;5083174;28;20032;-84
2022/04/27 07:46:07;;;;;;;4.32;2.90;;;11.50;99.90;;;;;;5082058;28;20051;-82
2022/04/27 07:48:33;;;;;;;10.02;3.42;;;11.60;99.90;;;;;;5071384;28;20062;-84
2022/04/27 07:50:59;;;;;;;6.18;3.42;;;11.60;99.90;;;;;;5086333;28;20044;-84
2022/04/27 07:53:26;;;;;;;5.40;3.10;;;11.80;99.90;;;;;;5086796;28;20090;-83
2022/04/27 07:55:52;;;;;;;5.85;3.15;;;11.80;99.90;;;;;;5065865;28;20028;-82
2022/04/27 07:58:18;;;;;;;11.93;3.65;;;11.80;99.90;;;;;;5080707;28;20054;-84
2022/04/27 08:00:44;;;;;;;20.17;4.22;;;11.80;99.90;;;;;;5083268;28;20024;-83
2022/04/27 08:03:10;;;;;;;8.35;3.80;;;11.90;99.90;;;;;;5086384;28;20116;-84
2022/04/27 08:05:36;;;;;;;7.03;3.63;;;12.00;99.90;;;;;;5076037;28;20114;-82
2022/04/27 08:08:01;;;;;;;11.50;4.00;;;12.10;99.90;;;;;;5071113;28;20101;-83
2022/04/27 08:10:27;;;;;;;5.70;3.25;;;12.20;99.90;;;;;;5092152;28;20050;-84
2022/04/27 08:12:53;;;;;;;6.18;3.33;;;12.20;99.90;;;;;;5074940;28;20035;-83
2022/04/27 08:15:22;;;;;;;8.80;4.15;;;12.30;99.90;;;;;;5088986;28;20029;-80
2022/04/27 08:17:58;;;;;;;8.10;3.78;;;12.40;99.90;;;;;;5105277;28;20036;-84
2022/04/27 08:23:20;;;;;;;10.27;3.65;;;12.30;99.90;;;;;;5092678;28;20104;-82
2022/04/27 08:25:47;;;;;;;7.20;3.70;;;12.40;99.90;;;;;;5078809;28;20028;-85
2022/04/27 08:28:14;;;;;;;6.55;4.30;;;12.50;99.90;;;;;;5079434;28;20020;-82
2022/04/27 08:30:42;;;;;;;6.28;4.05;;;12.60;99.90;;;;;;5064760;28;20971;-81
2022/04/27 08:33:09;;;;;;;8.18;4.05;;;12.70;99.90;;;;;;5069017;28;20016;-81
2022/04/27 08:35:36;;;;;;;8.32;4.03;;;12.80;99.90;;;;;;5049307;28;20112;-82
2022/04/27 08:38:05;;;;;;;8.25;4.22;;;12.90;99.90;;;;;;5084204;28;20044;-83
2022/04/27 08:40:34;;;;;;;10.88;4.22;;;13.10;99.90;;;;;;5082794;28;20025;-82
2022/04/27 08:43:01;;;;;;;14.57;4.43;;;13.10;99.90;;;;;;5083702;28;20104;-82
2022/04/27 08:45:28;;;;;;;6.90;4.43;;;13.10;99.90;;;;;;5065083;28;20028;-83
2022/04/27 08:47:55;;;;;;;11.52;4.60;;;13.10;99.90;;;;;;5088253;28;20024;-83
2022/04/27 08:50:22;;;;;;;8.52;3.97;;;13.10;99.90;;;;;;5075548;28;20092;-84
2022/04/27 08:52:50;;;;;;;9.30;4.57;;;13.30;99.90;;;;;;5083466;28;20025;-82
2022/04/27 08:55:17;;;;;;;7.95;4.53;;;13.40;99.90;;;;;;5096584;28;20174;-84
2022/04/27 08:57:43;;;;;;;6.95;4.80;;;13.20;99.90;;;;;;5067174;28;20058;-86
2022/04/27 09:00:16;;;;;;;9.13;4.60;;;13.00;99.90;;;;;;5091478;28;20055;-85
2022/04/27 09:02:42;;;;;;;18.70;5.60;;;12.80;99.90;;;;;;5074908;28;20033;-85
2022/04/27 09:05:13;;;;;;;8.48;5.03;;;13.00;99.90;;;;;;5068587;28;20021;-86
2022/04/27 09:07:48;;;;;;;9.18;4.85;;;12.90;99.90;;;;;;5082400;28;20040;-85
2022/04/27 09:10:17;;;;;;;;;;;12.90;99.90;;;;;;5080350;28;20025;-85
2022/04/27 09:12:51;;;;;;;10.57;4.57;;;12.70;99.90;;;;;;5062899;28;19927;-85
2022/04/27 09:15:20;;;;;;;10.95;5.05;;;12.70;99.90;;;;;;5071851;28;20037;-85
2022/04/27 09:20:47;;;;;;;8.30;4.90;;;12.70;99.90;;;;;;5083908;28;20078;-81
2022/04/27 09:23:28;;;;;;;8.68;5.18;;;12.70;99.90;;;;;;5063625;28;20020;-82
2022/04/27 09:25:56;;;;;;;10.23;5.22;;;12.70;99.90;;;;;;5081418;28;20033;-87
2022/04/27 09:28:23;;;;;;;10.75;5.18;;;12.70;99.90;;;;;;5082503;28;20056;-83
2022/04/27 09:30:50;;;;;;;9.15;5.50;;;12.70;99.90;;;;;;5073043;28;20051;-84
2022/04/27 09:33:40;;;;;;;8.20;5.45;;;12.60;99.90;;;;;;5076856;28;20029;-83
2022/04/27 09:36:19;;;;;;;9.63;5.60;;;12.60;99.90;;;;;;5079179;28;20041;-84
2022/04/27 09:38:45;;;;;;;10.75;5.05;;;12.50;99.90;;;;;;5075536;28;20021;-81
2022/04/27 09:41:11;;;;;;;10.95;7.10;;;12.60;99.90;;;;;;5072508;28;20090;-82
2022/04/27 09:43:45;;;;;;;7.13;4.78;;;12.60;99.90;;;;;;5087200;28;20040;-81
2022/04/27 09:46:22;;;;;;;9.85;5.65;;;12.60;99.90;;;;;;5089874;28;20029;-82
2022/04/27 09:49:08;;;;;;;7.68;5.78;;;12.50;99.90;;;;;;5069982;28;20039;-82
2022/04/27 09:51:46;;;;;;;11.80;6.13;;;12.40;99.90;;;;;;5084821;28;20143;-82
2022/04/27 09:54:36;;;;;;;9.38;6.18;;;12.50;99.90;;;;;;5085996;28;20044;-80
2022/04/27 09:57:08;;;;;;;9.05;6.38;;;12.50;99.90;;;;;;5084365;28;20107;-82
2022/04/27 09:59:36;;;;;;;11.63;6.40;;;12.60;99.90;;;;;;5088292;28;20032;-80
2022/04/27 10:02:07;;;;;;;10.15;6.35;;;12.60;99.90;;;;;;5072758;28;20020;-81
2022/04/27 10:04:33;;;;;;;13.93;6.10;;;12.60;99.90;;;;;;5090710;28;20035;-81
2022/04/27 10:07:02;;;;;;;9.13;6.15;;;12.60;99.90;;;;;;5088729;28;20052;-81
2022/04/27 10:09:29;;;;;;;14.40;8.70;;;12.60;99.90;;;;;;5069478;28;20655;-81
2022/04/27 10:11:56;;;;;;;11.57;6.75;;;12.70;99.90;;;;;;5091222;28;20040;-80
2022/04/27 10:14:22;;;;;;;8.10;5.65;;;12.80;99.90;;;;;;5077251;28;20028;-82
2022/04/27 10:16:49;;;;;;;8.63;6.03;;;12.90;99.90;;;;;;5083066;28;20040;-82
2022/04/27 10:19:17;;;;;;;9.80;5.93;;;13.00;99.90;;;;;;5071236;28;20005;-79
2022/04/27 10:21:59;;;;;;;10.98;6.38;;;13.00;99.90;;;;;;5110780;28;20092;-85
2022/04/27 10:24:34;;;;;;;7.22;5.10;;;13.20;99.90;;;;;;5075579;28;20115;-84
2022/04/27 10:27:39;;;;;;;8.70;5.10;;;13.20;99.90;;;;;;5097553;28;20076;-85
2022/04/27 10:30:11;;;;;;;9.95;5.45;;;13.20;99.90;;;;;;5086243;28;20059;-84
2022/04/27 10:32:42;;;;;;;7.22;5.38;;;13.20;99.90;;;;;;5075884;28;20043;-81
2022/04/27 10:35:29;;;;;;;8.65;5.10;;;13.30;99.90;;;;;;5081741;28;20047;-79
2022/04/27 10:38:02;;;;;;;9.38;5.32;;;13.50;99.90;;;;;;5096100;28;20017;-80
2022/04/27 10:40:39;;;;;;;7.13;5.25;;;13.50;99.90;;;;;;5091688;28;20047;-81
2022/04/27 10:43:11;;;;;;;10.80;5.03;;;13.80;99.90;;;;;;5090549;28;20027;-80
2022/04/27 10:45:38;;;;;;;8.77;5.15;;;14.20;99.90;;;;;;5074091;28;20056;-81
2022/04/27 10:48:07;;;;;;;8.32;5.22;;;14.60;99.90;;;;;;5091677;28;20031;-82
2022/04/27 10:50:37;;;;;;;7.57;5.13;;;14.80;99.90;;;;;;5074011;28;20032;-81
2022/04/27 10:53:21;;;;;;;8.32;5.15;;;14.90;99.90;;;;;;5089833;28;20032;-82
2022/04/27 10:55:50;;;;;;;8.63;5.35;;;15.20;99.90;;;;;;5074678;28;20036;-81
2022/04/27 10:58:17;;;;;;;8.20;5.13;;;15.40;99.90;;;;;;5092585;28;20101;-81
2022/04/27 11:00:58;;;;;;;8.50;4.55;;;15.70;99.90;;;;;;5073480;28;20015;-79
2022/04/27 11:03:26;;;;;;;13.00;4.85;;;15.70;99.90;;;;;;5066297;28;20044;-82
2022/04/27 11:05:52;;;;;;;5.80;4.30;;;15.50;99.90;;;;;;5084969;28;20693;-82
2022/04/27 11:08:46;;;;;;;8.38;4.68;;;15.30;99.90;;;;;;5079479;28;20074;-83
2022/04/27 11:11:12;;;;;;;6.75;4.43;;;15.00;99.90;;;;;;5032444;28;20048;-82
2022/04/27 11:13:38;;;;;;;8.82;4.50;;;15.10;99.90;;;;;;5079826;28;20048;-83
2022/04/27 11:16:11;;;;;;;6.22;4.13;;;15.20;99.90;;;;;;5089670;28;20091;-81
2022/04/27 11:19:10;;;;;;;8.48;3.95;;;15.50;99.90;;;;;;5061706;28;20035;-81
2022/04/27 11:21:37;;;;;;;6.47;4.07;;;15.90;99.90;;;;;;5040478;28;20028;-80
2022/04/27 11:24:07;;;;;;;6.30;4.28;;;16.20;99.90;;;;;;5070860;28;20073;-80
2022/04/27 11:26:46;;;;;;;6.20;4.75;;;16.20;99.90;;;;;;5088592;28;20035;-80
2022/04/27 11:29:13;;;;;;;6.28;4.57;;;16.10;99.90;;;;;;5075334;28;20011;-83
2022/04/27 11:31:43;;;;;;;6.75;4.38;;;16.20;99.90;;;;;;5078241;28;20039;-83
2022/04/27 11:34:26;;;;;;;7.22;4.30;;;15.90;99.90;;;;;;5066190;28;20032;-82
2022/04/27 11:36:54;;;;;;;5.63;4.13;;;16.20;99.90;;;;;;5092752;28;20025;-82
2022/04/27 11:39:25;;;;;;;5.63;4.18;;;16.90;99.90;;;;;;5094748;28;20021;-81
2022/04/27 11:42:01;;;;;;;4.95;3.72;;;17.20;99.90;;;;;;5056898;28;20037;-82
2022/04/27 11:44:28;;;;;;;7.82;3.53;;;17.30;99.90;;;;;;5087214;28;20035;-83
2022/04/27 11:46:55;;;;;;;7.47;4.20;;;18.10;99.90;;;;;;5071029;28;20062;-81
2022/04/27 11:49:24;;;;;;;4.75;3.95;;;18.90;99.90;;;;;;5071063;28;20047;-83
2022/04/27 11:51:51;;;;;;;6.43;4.20;;;18.30;99.90;;;;;;5081693;28;20028;-82
2022/04/27 11:54:28;;;;;;;6.20;3.70;;;17.80;99.90;;;;;;5060758;28;20028;-83
2022/04/27 11:57:01;;;;;;;8.15;4.10;;;17.20;99.90;;;;;;5073473;28;20028;-82
2022/04/27 11:59:43;;;;;;;7.32;3.97;;;16.80;99.90;;;;;;5063587;28;20104;-83
2022/04/27 12:02:10;;;;;;;9.18;4.40;;;16.40;99.90;;;;;;5064524;28;20028;-81
2022/04/27 12:04:37;;;;;;;7.97;4.22;;;16.10;99.90;;;;;;5068371;28;20055;-82
2022/04/27 12:07:14;;;;;;;9.23;4.30;;;16.10;99.90;;;;;;5062696;28;20081;-84
2022/04/27 12:09:41;;;;;;;9.10;4.60;;;16.20;99.90;;;;;;5080961;28;20031;-82
2022/04/27 12:12:11;;;;;;;7.72;4.50;;;16.40;99.90;;;;;;5060506;28;20028;-83
2022/04/27 12:14:41;;;;;;;10.07;4.88;;;16.30;99.90;;;;;;5054866;28;20480;-86
2022/04/27 12:17:40;;;;;;;7.57;4.97;;;16.20;99.90;;;;;;5078011;28;20024;-83
2022/04/27 12:20:07;;;;;;;9.23;4.60;;;16.00;99.90;;;;;;5085529;28;20008;-82
2022/04/27 12:22:33;;;;;;;6.60;4.38;;;16.00;99.90;;;;;;5086268;28;20103;-83
2022/04/27 12:25:05;;;;;;;9.32;4.68;;;15.90;99.90;;;;;;5081851;28;20054;-84
2022/04/27 12:27:31;;;;;;;11.02;3.95;;;15.70;99.90;;;;;;5079926;28;20025;-83
2022/04/27 12:30:07;;;;;;;7.22;4.70;;;15.50;99.90;;;;;;5064440;28;20028;-84
2022/04/27 12:32:35;;;;;;;7.70;4.53;;;15.40;99.90;;;;;;5079595;28;20051;-82
2022/04/27 12:37:53;;;;;;;10.02;4.55;;;15.20;99.90;;;;;;5089798;28;20032;-83
2022/04/27 12:40:19;;;;;;;5.97;4.13;;;15.10;99.90;;;;;;5063159;28;20028;-82
2022/04/27 12:43:02;;;;;;;6.40;4.40;;;15.10;99.90;;;;;;5073170;28;20028;-84
2022/04/27 12:45:29;;;;;;;5.47;4.15;;;15.30;99.90;;;;;;5060208;28;20107;-84
2022/04/27 12:47:55;;;;;;;6.07;3.83;;;15.30;99.90;;;;;;5067677;28;20035;-85
2022/04/27 12:50:23;;;;;;;5.55;4.10;;;15.20;99.90;;;;;;5061985;28;20043;-83
2022/04/27 12:52:50;;;;;;;6.30;4.68;;;15.10;99.90;;;;;;5047020;28;20024;-86
2022/04/27 12:55:17;;;;;;;9.60;4.55;;;15.10;99.90;;;;;;5106254;22;20031;-87
2022/04/27 12:57:57;;;;;;;10.50;4.60;;;15.20;99.90;;;;;;5110890;28;20012;-88
2022/04/27 13:00:38;;;;;;;6.32;4.32;;;15.40;99.90;;;;;;5090795;28;20044;-85
2022/04/27 13:03:04;;;;;;;6.68;4.57;;;15.50;99.90;;;;;;5087441;28;20028;-86
2022/04/27 13:05:30;;;;;;;6.95;5.25;;;15.70;99.90;;;;;;5105810;28;20068;-86
2022/04/27 13:07:55;;;;;;;13.57;5.03;;;15.80;99.90;;;;;;5103096;28;20046;-85
2022/04/27 13:13:08;;;;;;;8.40;5.28;;;15.90;99.90;;;;;;5103826;28;20032;-87
2022/04/27 13:15:34;;;;;;;10.80;5.50;;;15.90;99.90;;;;;;5087427;28;20043;-84
2022/04/27 13:18:00;;;;;;;9.95;5.20;;;15.90;99.90;;;;;;5102445;28;20020;-86
2022/04/27 13:20:26;;;;;;;10.18;5.60;;;15.80;99.90;;;;;;5109027;28;20095;-88
2022/04/27 13:22:52;;;;;;;9.00;5.53;;;15.70;99.90;;;;;;5103893;28;20103;-84
2022/04/27 13:25:17;;;;;;;7.57;5.47;;;15.60;99.90;;;;;;5098690;28;20055;-85
2022/04/27 13:27:43;;;;;;;7.93;5.10;;;15.40;99.90;;;;;;5100998;28;20031;-87
2022/04/27 13:30:09;;;;;;;9.23;5.30;;;15.30;99.90;;;;;;5104648;28;20060;-86
2022/04/27 13:32:36;;;;;;;7.97;5.45;;;15.30;99.90;;;;;;5106255;28;20043;-86
2022/04/27 13:35:02;;;;;;;8.93;5.13;;;15.20;99.90;;;;;;5103448;28;20017;-87
2022/04/27 13:37:29;;;;;;;10.43;5.53;;;15.20;99.90;;;;;;5082314;28;20082;-87